createdAt,value
2019-02-05T00:01:34.184Z,60.00
2019-02-05T00:04:02.588Z,60.00
2019-02-05T00:06:30.501Z,60.10
2019-02-05T00:08:58.266Z,60.00
2019-02-05T00:11:26.145Z,60.50
2019-02-05T00:13:53.882Z,59.80
2019-02-05T00:16:21.680Z,60.30
2019-02-05T00:18:51.625Z,59.20
2019-02-05T00:21:19.172Z,59.00
2019-02-05T00:23:46.976Z,59.00
2019-02-05T00:26:14.785Z,59.00
2019-02-05T00:28:42.504Z,59.00
2019-02-05T00:31:10.332Z,59.70
2019-02-05T00:33:38.170Z,59.80
2019-02-05T00:36:05.961Z,59.00
2019-02-05T00:38:33.711Z,60.30
2019-02-05T00:41:01.550Z,61.00
2019-02-05T00:43:31.534Z,62.10
2019-02-05T00:45:59.349Z,62.80
2019-02-05T00:48:27.112Z,62.00
2019-02-05T00:50:54.908Z,62.80
2019-02-05T00:53:22.961Z,62.20
2019-02-05T00:55:50.714Z,62.50
2019-02-05T00:58:18.536Z,63.80
2019-02-05T01:00:46.316Z,64.10
2019-02-05T01:03:14.238Z,64.00
2019-02-05T01:05:42.055Z,63.80
2019-02-05T01:08:09.986Z,63.70
2019-02-05T01:10:38.078Z,63.80
2019-02-05T01:13:05.893Z,63.90
2019-02-05T01:15:33.654Z,64.10
2019-02-05T01:18:01.398Z,63.60
2019-02-05T01:20:29.175Z,64.50
2019-02-05T01:22:56.984Z,64.90
2019-02-05T01:25:24.815Z,65.40
2019-02-05T01:27:52.617Z,65.90
2019-02-05T01:30:24.971Z,66.80
2019-02-05T01:32:52.855Z,66.20
2019-02-05T01:35:21.085Z,67.00
2019-02-05T01:37:48.948Z,66.90
2019-02-05T01:40:18.900Z,67.30
2019-02-05T01:42:46.708Z,68.20
2019-02-05T01:45:17.155Z,68.40
2019-02-05T01:47:44.944Z,68.80
2019-02-05T01:50:17.014Z,68.50
2019-02-05T01:52:44.955Z,68.30
2019-02-05T01:55:13.582Z,68.90
2019-02-05T01:57:41.861Z,70.70
2019-02-05T02:00:14.412Z,70.60
2019-02-05T02:02:42.231Z,70.60
2019-02-05T02:05:10.302Z,70.30
2019-02-05T02:07:38.139Z,71.60
2019-02-05T02:10:08.002Z,73.70
2019-02-05T02:12:36.125Z,73.20
2019-02-05T02:15:05.409Z,72.80
2019-02-05T02:17:33.376Z,73.50
2019-02-05T02:20:01.135Z,73.60
2019-02-05T02:22:29.156Z,73.20
2019-02-05T02:24:58.765Z,73.10
2019-02-05T02:27:26.913Z,73.10
2019-02-05T02:29:54.767Z,73.10
2019-02-05T02:32:22.556Z,74.40
2019-02-05T02:34:50.359Z,75.30
2019-02-05T02:37:18.177Z,75.50
2019-02-05T02:39:45.969Z,76.00
2019-02-05T02:42:13.739Z,76.60
2019-02-05T02:44:41.574Z,77.40
2019-02-05T02:47:09.328Z,76.50
2019-02-05T02:49:37.130Z,77.50
2019-02-05T02:52:04.923Z,78.00
2019-02-05T02:54:32.727Z,78.20
2019-02-05T02:57:04.976Z,78.50
2019-02-05T02:59:30.263Z,77.90
2019-02-05T03:01:58.762Z,77.90
2019-02-05T03:04:26.580Z,78.40
2019-02-05T03:06:54.388Z,77.60
2019-02-05T03:09:22.174Z,77.90
2019-02-05T03:11:49.950Z,78.20
2019-02-05T03:14:17.754Z,78.60
2019-02-05T03:16:45.866Z,79.10
2019-02-05T03:19:13.660Z,78.50
2019-02-05T03:21:41.762Z,79.10
2019-02-05T03:24:09.543Z,79.70
2019-02-05T03:26:37.344Z,80.40
2019-02-05T03:29:05.152Z,79.50
2019-02-05T03:31:32.985Z,80.00
2019-02-05T03:34:00.750Z,79.70
2019-02-05T03:36:28.585Z,80.30
2019-02-05T03:38:56.375Z,80.30
2019-02-05T03:41:24.830Z,81.80
2019-02-05T03:43:52.569Z,81.60
2019-02-05T03:46:20.682Z,81.80
2019-02-05T03:48:49.449Z,81.60
2019-02-05T03:52:01.423Z,80.90
2019-02-05T03:55:36.919Z,80.60
2019-02-05T03:59:09.287Z,81.50
2019-02-05T04:02:41.637Z,80.10
2019-02-05T04:05:48.428Z,80.10
2019-02-05T04:09:26.315Z,80.80
2019-02-05T04:12:49.442Z,80.40
2019-02-05T04:17:00.830Z,81.60
2019-02-05T04:20:53.007Z,82.30
2019-02-05T04:24:01.747Z,80.50
2019-02-05T04:27:47.866Z,80.80
2019-02-05T04:31:23.260Z,80.30
2019-02-05T04:34:42.224Z,81.40
2019-02-05T04:38:06.732Z,82.00
2019-02-05T04:41:15.657Z,81.10
2019-02-05T04:44:51.731Z,80.60
2019-02-05T04:48:28.463Z,82.00
2019-02-05T04:51:47.962Z,82.20
2019-02-05T04:55:07.659Z,82.80
2019-02-05T04:58:28.276Z,82.00
2019-02-05T05:01:53.705Z,82.10
2019-02-05T05:04:43.157Z,81.90
2019-02-05T05:08:15.447Z,82.30
2019-02-05T05:10:46.034Z,82.90
2019-02-05T05:13:13.856Z,82.20
2019-02-05T05:15:41.870Z,82.50
2019-02-05T05:18:10.105Z,83.40
2019-02-05T05:20:38.283Z,83.40
2019-02-05T05:23:06.086Z,83.40
2019-02-05T05:25:34.301Z,83.70
2019-02-05T05:28:09.772Z,83.80
2019-02-05T05:30:31.990Z,83.80
2019-02-05T05:32:59.810Z,84.40
2019-02-05T05:35:41.846Z,84.00
2019-02-05T05:38:07.673Z,82.80
2019-02-05T05:40:35.446Z,82.10
2019-02-05T05:43:03.294Z,82.60
2019-02-05T05:45:31.262Z,82.10
2019-02-05T05:47:59.080Z,82.70
2019-02-05T05:50:26.812Z,82.10
2019-02-05T05:52:54.622Z,82.60
2019-02-05T05:55:22.429Z,82.20
2019-02-05T05:57:50.223Z,82.30
2019-02-05T06:00:39.673Z,82.20
2019-02-05T06:03:07.479Z,82.40
2019-02-05T06:05:35.460Z,82.40
2019-02-05T06:08:03.275Z,82.30
2019-02-05T06:10:31.028Z,82.40
2019-02-05T06:12:58.944Z,80.90
2019-02-05T06:15:27.856Z,80.90
2019-02-05T06:17:56.934Z,80.60
2019-02-05T06:20:24.756Z,80.80
2019-02-05T06:22:53.081Z,80.90
2019-02-05T06:25:23.605Z,82.10
2019-02-05T06:27:53.669Z,82.10
2019-02-05T06:30:33.674Z,81.50
2019-02-05T06:33:01.457Z,81.70
2019-02-05T06:35:48.354Z,82.50
2019-02-05T06:38:16.135Z,82.00
2019-02-05T06:40:43.919Z,82.00
2019-02-05T06:43:11.945Z,81.90
2019-02-05T06:45:41.552Z,83.50
2019-02-05T06:48:09.438Z,83.50
2019-02-05T06:50:37.702Z,82.10
2019-02-05T06:53:05.499Z,82.20
2019-02-05T06:55:33.551Z,82.30
2019-02-05T06:58:01.356Z,82.30
2019-02-05T07:00:29.140Z,83.60
2019-02-05T07:02:56.971Z,81.50
2019-02-05T07:05:24.859Z,80.40
2019-02-05T07:07:52.969Z,79.60
2019-02-05T07:10:21.275Z,79.00
2019-02-05T07:12:51.128Z,79.10
2019-02-05T07:15:18.822Z,78.80
2019-02-05T07:17:49.845Z,78.60
2019-02-05T07:20:16.582Z,78.00
2019-02-05T07:22:44.369Z,77.40
2019-02-05T07:25:14.344Z,78.20
2019-02-05T07:27:42.179Z,77.60
2019-02-05T07:30:17.417Z,76.80
2019-02-05T07:32:45.276Z,75.80
2019-02-05T07:35:13.688Z,75.60
2019-02-05T07:37:41.497Z,74.90
2019-02-05T07:40:12.122Z,76.20
2019-02-05T07:42:40.191Z,76.60
2019-02-05T07:45:11.792Z,76.40
2019-02-05T07:47:39.584Z,75.50
2019-02-05T07:50:11.794Z,75.50
2019-02-05T07:52:39.652Z,74.00
2019-02-05T07:55:08.555Z,74.00
2019-02-05T07:57:36.371Z,73.40
2019-02-05T08:00:09.814Z,73.60
2019-02-05T08:02:37.662Z,72.70
2019-02-05T08:05:09.141Z,71.90
2019-02-05T08:07:36.945Z,71.50
2019-02-05T08:10:05.655Z,71.60
2019-02-05T08:12:33.451Z,72.30
2019-02-05T08:15:01.247Z,72.20
2019-02-05T08:17:29.557Z,72.20
2019-02-05T08:19:57.851Z,72.40
2019-02-05T08:22:25.686Z,71.40
2019-02-05T08:24:53.401Z,71.10
2019-02-05T08:27:21.171Z,69.70
2019-02-05T08:29:48.930Z,69.00
2019-02-05T08:32:18.853Z,68.80
2019-02-05T08:34:46.662Z,68.90
2019-02-05T08:37:14.752Z,67.30
2019-02-05T08:39:42.604Z,67.80
2019-02-05T08:42:10.372Z,67.90
2019-02-05T08:44:38.210Z,67.90
2019-02-05T08:47:06.219Z,68.50
2019-02-05T08:49:34.012Z,68.20
2019-02-05T08:52:01.813Z,67.10
2019-02-05T08:54:29.648Z,67.00
2019-02-05T08:57:03.184Z,66.20
2019-02-05T08:59:30.963Z,65.70
2019-02-05T09:01:58.745Z,64.90
2019-02-05T09:04:26.476Z,64.60
2019-02-05T09:06:54.490Z,65.30
2019-02-05T09:09:22.309Z,66.00
2019-02-05T09:11:51.422Z,64.80
2019-02-05T09:14:19.726Z,65.10
2019-02-05T09:16:52.700Z,64.90
2019-02-05T09:19:20.487Z,63.60
2019-02-05T09:21:48.262Z,62.20
2019-02-05T09:24:16.018Z,63.10
2019-02-05T09:26:44.024Z,62.50
2019-02-05T09:29:11.795Z,60.30
2019-02-05T09:31:39.944Z,61.50
2019-02-05T09:34:07.687Z,60.10
2019-02-05T09:36:45.587Z,59.00
2019-02-05T09:39:13.350Z,57.50
2019-02-05T09:41:41.278Z,57.80
2019-02-05T09:44:09.036Z,58.00
2019-02-05T09:46:36.890Z,56.70
2019-02-05T09:49:05.085Z,57.00
2019-02-05T09:51:33.001Z,57.00
2019-02-05T09:54:00.784Z,56.30
2019-02-05T09:56:28.918Z,56.40
2019-02-05T09:58:56.678Z,56.20
2019-02-05T10:01:24.471Z,55.40
2019-02-05T10:03:52.230Z,54.80
2019-02-05T10:06:20.282Z,54.50
2019-02-05T10:08:48.062Z,55.20
2019-02-05T10:11:15.833Z,54.50
2019-02-05T10:13:43.664Z,54.70
2019-02-05T10:16:11.619Z,55.70
2019-02-05T10:18:39.448Z,54.20
2019-02-05T10:21:07.235Z,54.90
2019-02-05T10:23:35.049Z,54.40
2019-02-05T10:26:03.008Z,52.10
2019-02-05T10:28:30.832Z,52.20
2019-02-05T10:30:58.625Z,50.50
2019-02-05T10:33:26.453Z,50.80
2019-02-05T10:35:54.540Z,49.70
2019-02-05T10:38:22.694Z,50.00
2019-02-05T10:40:50.603Z,50.80
2019-02-05T10:43:18.426Z,50.20
2019-02-05T10:45:46.452Z,50.50
2019-02-05T10:48:14.218Z,51.10
2019-02-05T10:50:41.978Z,52.00
2019-02-05T10:53:10.307Z,50.00
2019-02-05T10:55:43.303Z,49.70
2019-02-05T10:58:11.226Z,49.20
2019-02-05T11:00:39.128Z,48.10
2019-02-05T11:03:07.784Z,48.00
2019-02-05T11:05:36.978Z,47.80
2019-02-05T11:08:08.378Z,48.00
2019-02-05T11:10:36.352Z,47.80
2019-02-05T11:13:05.600Z,47.80
2019-02-05T11:15:33.426Z,47.80
2019-02-05T11:18:01.621Z,48.30
2019-02-05T11:20:29.814Z,48.20
2019-02-05T11:22:58.830Z,48.10
2019-02-05T11:25:27.045Z,48.00
2019-02-05T11:27:55.972Z,48.10
2019-02-05T11:30:36.084Z,48.20
2019-02-05T11:33:04.512Z,48.20
2019-02-05T11:35:39.883Z,48.10
2019-02-05T11:38:10.178Z,48.20
2019-02-05T11:40:38.619Z,47.70
2019-02-05T11:43:06.459Z,48.00
2019-02-05T11:45:39.418Z,47.10
2019-02-05T11:48:14.761Z,45.60
2019-02-05T11:50:42.590Z,45.70
2019-02-05T11:53:10.393Z,44.90
2019-02-05T11:55:38.660Z,45.70
2019-02-05T11:58:06.462Z,45.80
2019-02-05T12:00:48.540Z,45.60
2019-02-05T12:03:16.739Z,44.50
2019-02-05T12:05:44.496Z,44.10
2019-02-05T12:08:12.349Z,42.60
2019-02-05T12:10:40.084Z,40.60
2019-02-05T12:13:07.914Z,41.00
2019-02-05T12:15:35.746Z,39.40
2019-02-05T12:18:04.015Z,38.70
2019-02-05T12:20:31.816Z,38.00
2019-02-05T12:23:00.287Z,37.40
2019-02-05T12:25:28.418Z,37.90
2019-02-05T12:27:56.181Z,38.50
2019-02-05T12:30:30.390Z,38.50
2019-02-05T12:32:58.202Z,38.80
2019-02-05T12:35:26.125Z,38.60
2019-02-05T12:37:53.951Z,37.40
2019-02-05T12:40:22.562Z,36.60
2019-02-05T12:42:50.471Z,37.30
2019-02-05T12:45:21.810Z,37.20
2019-02-05T12:47:49.608Z,38.60
2019-02-05T12:50:23.566Z,39.30
2019-02-05T12:52:51.572Z,40.30
2019-02-05T12:55:19.920Z,40.80
2019-02-05T12:57:47.720Z,41.70
2019-02-05T13:00:37.916Z,42.20
2019-02-05T13:03:06.930Z,42.90
2019-02-05T13:05:34.790Z,42.70
2019-02-05T13:08:05.370Z,43.00
2019-02-05T13:10:35.733Z,43.10
2019-02-05T13:13:05.879Z,43.70
2019-02-05T13:15:34.153Z,43.10
2019-02-05T13:18:01.934Z,43.40
2019-02-05T13:20:30.133Z,43.30
2019-02-05T13:22:59.531Z,42.30
2019-02-05T13:25:28.265Z,42.50
2019-02-05T13:27:56.107Z,42.80
2019-02-05T13:30:26.623Z,43.20
2019-02-05T13:32:54.668Z,44.10
2019-02-05T13:35:22.974Z,45.20
2019-02-05T13:37:51.293Z,45.70
2019-02-05T13:40:35.971Z,45.80
2019-02-05T13:43:05.897Z,46.30
2019-02-05T13:45:55.381Z,46.50
2019-02-05T13:48:25.139Z,48.90
2019-02-05T13:50:53.062Z,48.00
2019-02-05T13:53:20.887Z,48.00
2019-02-05T13:55:49.930Z,48.10
2019-02-05T13:58:17.948Z,48.10
2019-02-05T14:00:50.473Z,48.10
2019-02-05T14:03:18.393Z,47.90
2019-02-05T14:05:46.551Z,48.10
2019-02-05T14:08:14.356Z,48.20
2019-02-05T14:10:42.981Z,48.40
2019-02-05T14:13:11.032Z,48.40
2019-02-05T14:15:40.698Z,48.20
2019-02-05T14:18:09.151Z,48.20
2019-02-05T14:20:36.963Z,48.10
2019-02-05T14:23:04.728Z,48.00
2019-02-05T14:25:32.556Z,48.40
2019-02-05T14:28:00.335Z,48.10
2019-02-05T14:30:44.944Z,48.10
2019-02-05T14:33:12.787Z,48.20
2019-02-05T14:35:40.670Z,48.30
2019-02-05T14:38:09.505Z,48.20
2019-02-05T14:40:37.340Z,48.30
2019-02-05T14:43:06.472Z,48.30
2019-02-05T14:45:34.622Z,49.10
2019-02-05T14:48:02.591Z,47.50
2019-02-05T14:50:31.549Z,46.70
2019-02-05T14:52:59.458Z,47.70
2019-02-05T14:55:45.315Z,48.20
2019-02-05T14:58:15.179Z,48.20
2019-02-05T15:00:42.972Z,48.70
2019-02-05T15:03:12.722Z,49.90
2019-02-05T15:05:41.695Z,50.40
2019-02-05T15:08:11.152Z,51.00
2019-02-05T15:10:38.970Z,51.10
2019-02-05T15:13:07.196Z,52.20
2019-02-05T15:15:35.542Z,52.40
2019-02-05T15:18:04.380Z,53.30
2019-02-05T15:20:35.840Z,54.20
2019-02-05T15:23:05.650Z,54.70
2019-02-05T15:25:33.540Z,55.20
2019-02-05T15:28:01.275Z,55.60
2019-02-05T15:30:33.194Z,56.90
2019-02-05T15:33:19.264Z,56.80
2019-02-05T15:36:26.786Z,56.80
2019-02-05T15:38:54.558Z,57.80
2019-02-05T15:41:30.347Z,56.80
2019-02-05T15:44:00.653Z,56.80
2019-02-05T15:46:27.997Z,56.90
2019-02-05T15:49:15.287Z,56.80
2019-02-05T15:51:43.053Z,58.10
2019-02-05T15:54:10.834Z,57.80
2019-02-05T15:56:38.779Z,57.90
2019-02-05T15:59:07.161Z,57.80
2019-02-05T16:01:34.954Z,58.20
2019-02-05T16:04:02.766Z,57.10
2019-02-05T16:06:35.672Z,58.20
2019-02-05T16:09:07.208Z,58.20
2019-02-05T16:11:35.041Z,58.90
2019-02-05T16:14:02.803Z,59.20
2019-02-05T16:16:30.676Z,59.60
2019-02-05T16:18:58.499Z,59.70
2019-02-05T16:21:26.281Z,60.00
2019-02-05T16:23:54.090Z,59.90
2019-02-05T16:26:22.117Z,60.10
2019-02-05T16:28:50.011Z,60.10
2019-02-05T16:31:17.803Z,60.10
2019-02-05T16:33:45.621Z,61.40
2019-02-05T16:36:13.440Z,61.20
2019-02-05T16:38:41.286Z,61.50
2019-02-05T16:41:09.140Z,62.70
2019-02-05T16:43:36.969Z,62.40
2019-02-05T16:46:10.082Z,62.40
2019-02-05T16:48:38.184Z,63.30
2019-02-05T16:51:06.371Z,63.80
2019-02-05T16:53:34.203Z,64.00
2019-02-05T16:56:02.333Z,63.90
2019-02-05T16:58:30.170Z,65.00
2019-02-05T17:00:57.999Z,66.40
2019-02-05T17:03:25.810Z,66.20
2019-02-05T17:05:56.667Z,66.20
2019-02-05T17:08:24.499Z,66.10
2019-02-05T17:10:52.443Z,66.10
2019-02-05T17:13:20.214Z,66.90
2019-02-05T17:15:48.009Z,67.30
2019-02-05T17:18:23.211Z,69.30
2019-02-05T17:20:45.491Z,68.50
2019-02-05T17:23:13.286Z,68.60
2019-02-05T17:25:41.166Z,68.60
2019-02-05T17:28:08.969Z,69.40
2019-02-05T17:30:38.181Z,70.10
2019-02-05T17:33:06.380Z,70.50
2019-02-05T17:35:35.552Z,70.40
2019-02-05T17:38:06.478Z,70.90
2019-02-05T17:40:34.246Z,70.70
2019-02-05T17:43:02.046Z,71.90
2019-02-05T17:45:32.854Z,71.30
2019-02-05T17:48:04.489Z,71.90
2019-02-05T17:50:32.994Z,71.80
2019-02-05T17:53:01.131Z,73.40
2019-02-05T17:55:28.956Z,73.50
2019-02-05T17:57:56.794Z,73.00
2019-02-05T18:00:36.620Z,72.90
2019-02-05T18:03:05.134Z,73.10
2019-02-05T18:05:34.926Z,72.30
2019-02-05T18:08:03.351Z,72.10
2019-02-05T18:10:31.195Z,72.30
2019-02-05T18:12:59.032Z,72.40
2019-02-05T18:15:30.263Z,71.10
2019-02-05T18:17:58.219Z,71.00
2019-02-05T18:20:25.990Z,71.40
2019-02-05T18:22:54.126Z,71.30
2019-02-05T18:25:22.211Z,72.30
2019-02-05T18:27:50.126Z,72.60
2019-02-05T18:30:29.679Z,73.40
2019-02-05T18:33:03.625Z,73.10
2019-02-05T18:35:27.242Z,72.90
2019-02-05T18:37:55.115Z,72.50
2019-02-05T18:40:23.286Z,72.40
2019-02-05T18:42:51.207Z,72.80
2019-02-05T18:45:19.892Z,73.10
2019-02-05T18:47:47.799Z,72.60
2019-02-05T18:50:19.326Z,72.90
2019-02-05T18:52:47.624Z,72.40
2019-02-05T18:55:15.722Z,72.20
2019-02-05T18:57:43.556Z,72.10
2019-02-05T19:00:28.430Z,72.30
2019-02-05T19:02:56.329Z,72.90
2019-02-05T19:05:24.781Z,71.60
2019-02-05T19:07:52.674Z,72.90
2019-02-05T19:10:40.018Z,72.50
2019-02-05T19:13:07.864Z,72.80
2019-02-05T19:15:36.679Z,72.70
2019-02-05T19:18:06.098Z,71.40
2019-02-05T19:20:34.382Z,71.20
2019-02-05T19:23:02.688Z,71.30
2019-02-05T19:25:49.368Z,71.30
2019-02-05T19:28:34.696Z,71.20
2019-02-05T19:31:33.194Z,71.20
2019-02-05T19:34:01.108Z,70.30
2019-02-05T19:36:29.059Z,72.50
2019-02-05T19:38:56.973Z,73.20
2019-02-05T19:41:24.933Z,74.00
2019-02-05T19:43:52.923Z,73.40
2019-02-05T19:46:55.310Z,73.00
2019-02-05T19:49:31.182Z,72.80
2019-02-05T19:51:59.104Z,73.10
2019-02-05T19:54:27.400Z,73.20
2019-02-05T19:56:55.426Z,72.70
2019-02-05T19:59:23.679Z,72.90
2019-02-05T20:01:51.481Z,73.30
2019-02-05T20:04:19.333Z,73.80
2019-02-05T20:06:47.164Z,74.40
2019-02-05T20:09:15.015Z,75.20
2019-02-05T20:11:42.819Z,75.00
2019-02-05T20:14:10.714Z,75.10
2019-02-05T20:16:44.308Z,76.00
2019-02-05T20:19:12.546Z,76.00
2019-02-05T20:21:41.016Z,75.40
2019-02-05T20:24:14.854Z,75.50
2019-02-05T20:26:47.599Z,75.50
2019-02-05T20:29:15.215Z,75.60
2019-02-05T20:31:43.268Z,76.20
2019-02-05T20:34:11.149Z,76.20
2019-02-05T20:36:42.402Z,75.10
2019-02-05T20:39:24.770Z,74.80
2019-02-05T20:41:53.068Z,75.60
2019-02-05T20:44:21.029Z,75.30
2019-02-05T20:46:48.963Z,75.10
2019-02-05T20:49:16.987Z,74.40
2019-02-05T20:51:45.497Z,74.00
2019-02-05T20:54:13.657Z,74.20
2019-02-05T20:56:44.443Z,74.50
2019-02-05T20:59:12.256Z,74.40
2019-02-05T21:01:40.082Z,75.20
2019-02-05T21:04:07.995Z,76.20
2019-02-05T21:06:35.819Z,76.30
2019-02-05T21:09:18.189Z,76.50
2019-02-05T21:11:46.119Z,76.10
2019-02-05T21:14:13.973Z,76.10
2019-02-05T21:16:41.767Z,76.10
2019-02-05T21:19:09.561Z,75.50
2019-02-05T21:21:37.417Z,75.80
2019-02-05T21:24:05.861Z,75.90
2019-02-05T21:26:33.774Z,74.30
2019-02-05T21:29:01.526Z,74.50
2019-02-05T21:31:29.342Z,74.70
2019-02-05T21:33:57.188Z,75.60
2019-02-05T21:36:25.052Z,76.30
2019-02-05T21:38:52.973Z,75.20
2019-02-05T21:41:20.783Z,74.80
2019-02-05T21:43:48.643Z,74.70
2019-02-05T21:46:16.455Z,76.00
2019-02-05T21:48:44.343Z,76.10
2019-02-05T21:51:12.139Z,76.10
2019-02-05T21:53:39.957Z,75.90
2019-02-05T21:56:07.732Z,76.00
2019-02-05T21:58:35.552Z,76.00
2019-02-05T22:01:04.878Z,76.00
2019-02-05T22:03:32.678Z,75.90
2019-02-05T22:06:05.719Z,76.80
2019-02-05T22:08:33.571Z,77.00
2019-02-05T22:11:01.388Z,79.50
2019-02-05T22:13:29.248Z,80.50
2019-02-05T22:15:57.055Z,80.40
2019-02-05T22:18:24.804Z,80.00
2019-02-05T22:20:52.665Z,80.10
2019-02-05T22:23:21.584Z,80.70
2019-02-05T22:25:49.407Z,81.90
2019-02-05T22:28:17.194Z,82.20
2019-02-05T22:30:46.908Z,81.70
2019-02-05T22:33:14.701Z,81.70
2019-02-05T22:35:42.853Z,80.70
2019-02-05T22:38:10.673Z,80.60
2019-02-05T22:40:38.458Z,81.10
2019-02-05T22:43:06.821Z,79.80
2019-02-05T22:45:34.608Z,80.40
2019-02-05T22:48:02.362Z,80.60
2019-02-05T22:50:31.510Z,80.20
2019-02-05T22:53:00.244Z,80.50
2019-02-05T22:55:28.093Z,80.70
2019-02-05T22:57:55.887Z,81.20
2019-02-05T23:01:13.591Z,81.30
2019-02-05T23:04:58.945Z,82.00
2019-02-05T23:07:29.094Z,81.40
2019-02-05T23:11:03.462Z,82.40
2019-02-05T23:13:26.133Z,83.80
2019-02-05T23:15:54.448Z,84.50
2019-02-05T23:18:22.237Z,84.50
2019-02-05T23:20:50.042Z,84.40
2019-02-05T23:23:17.932Z,86.80
2019-02-05T23:25:45.756Z,88.40
2019-02-05T23:28:13.538Z,86.20
2019-02-05T23:30:41.497Z,85.50
2019-02-05T23:33:09.688Z,84.50
2019-02-05T23:35:37.551Z,84.30
2019-02-05T23:38:05.598Z,84.30
2019-02-05T23:40:33.387Z,85.90
2019-02-05T23:43:01.170Z,84.30
2019-02-05T23:45:28.986Z,84.20
2019-02-05T23:47:56.881Z,84.60
2019-02-05T23:50:24.985Z,86.80
2019-02-05T23:52:52.803Z,87.70
2019-02-05T23:55:20.635Z,87.00
2019-02-05T23:57:48.431Z,88.80
